Exton, Pennsylvania
Current Conditions -  °F | °C
As of 5:35 PM on Tuesday 21 Oct 2014 (Local Time) from KMQS Reporting Station
Few Clouds Few Clouds  
Wind Chill: 61°   Ceiling: Unl
Heat Index: 61°   Visibility: 10mi
Dew Point: 48°   Wind: 5mph
Humidity: 63%   Direction: 340°NNW
Pressure: 29.83"   Gusts: NA
Location:  40.03°N, 75.62°W
Report Text: KMQS 212135Z AUTO 34004KT 10SM FEW120 16/09 A2983 RMK AO2
Loading
Personal Weather Stations






























Interactive Weather Map
Tropical Storm Tracking
New forecast layout! Learn more

10-Day Weather Forecast

Advertisements
Track Severe Weather on mobile